createdAt,value
2023-09-01T00:01:02.415Z,17.19
2023-09-01T00:03:29.233Z,17.20
2023-09-01T00:05:56.025Z,17.19
2023-09-01T00:08:24.472Z,17.18
2023-09-01T00:10:51.109Z,17.19
2023-09-01T00:13:17.814Z,17.15
2023-09-01T00:15:44.492Z,17.13
2023-09-01T00:18:11.172Z,17.11
2023-09-01T00:20:37.831Z,17.08
2023-09-01T00:23:04.980Z,17.05
2023-09-01T00:25:31.850Z,17.03
2023-09-01T00:27:58.469Z,17.01
2023-09-01T00:30:25.010Z,17.01
2023-09-01T00:32:51.695Z,16.96
2023-09-01T00:35:18.347Z,16.92
2023-09-01T00:37:44.951Z,16.91
2023-09-01T00:40:11.747Z,16.91
2023-09-01T00:42:38.397Z,16.90
2023-09-01T00:45:05.185Z,16.89
2023-09-01T00:47:32.313Z,16.87
2023-09-01T00:49:59.011Z,16.83
2023-09-01T00:52:25.753Z,16.80
2023-09-01T00:54:52.467Z,16.80
2023-09-01T00:57:19.158Z,16.76
2023-09-01T00:59:45.755Z,16.73
2023-09-01T01:02:12.368Z,16.70
2023-09-01T01:04:38.972Z,16.69
2023-09-01T01:07:24.109Z,16.68
2023-09-01T01:09:55.339Z,16.67
2023-09-01T01:12:25.920Z,16.65
2023-09-01T01:14:54.486Z,16.64
2023-09-01T01:17:22.260Z,16.60
2023-09-01T01:19:57.165Z,16.59
2023-09-01T01:22:33.048Z,16.57
2023-09-01T01:24:59.738Z,16.53
2023-09-01T01:27:26.339Z,16.52
2023-09-01T01:29:52.947Z,16.49
2023-09-01T01:32:19.727Z,16.46
2023-09-01T01:34:55.380Z,16.46
2023-09-01T01:37:30.134Z,16.43
2023-09-01T01:39:58.245Z,16.40
2023-09-01T01:42:28.516Z,16.39
2023-09-01T01:44:58.257Z,16.36
2023-09-01T01:47:24.908Z,16.37
2023-09-01T01:49:51.677Z,16.35
2023-09-01T01:52:18.250Z,16.34
2023-09-01T01:54:44.861Z,16.35
2023-09-01T01:57:15.534Z,16.30
2023-09-01T01:59:42.755Z,16.27
2023-09-01T02:02:09.447Z,16.21
2023-09-01T02:04:36.782Z,16.15
2023-09-01T02:07:06.694Z,16.09
2023-09-01T02:09:34.102Z,16.02
2023-09-01T02:12:00.708Z,15.95
2023-09-01T02:14:27.298Z,15.91
2023-09-01T02:16:53.913Z,15.89
2023-09-01T02:19:20.656Z,15.86
2023-09-01T02:21:47.298Z,15.86
2023-09-01T02:24:13.993Z,15.88
2023-09-01T02:26:40.618Z,15.87
2023-09-01T02:29:07.248Z,15.88
2023-09-01T02:31:34.938Z,15.89
2023-09-01T02:34:01.534Z,15.89
2023-09-01T02:36:29.787Z,15.90
2023-09-01T02:38:56.840Z,15.90
2023-09-01T02:41:23.642Z,15.89
2023-09-01T02:43:50.472Z,15.88
2023-09-01T02:46:17.301Z,15.89
2023-09-01T02:48:44.197Z,15.89
2023-09-01T02:51:10.803Z,15.90
2023-09-01T02:53:37.724Z,15.89
2023-09-01T02:56:06.085Z,15.89
2023-09-01T02:58:34.214Z,15.89
2023-09-01T03:01:08.359Z,15.90
2023-09-01T03:03:36.226Z,15.91
2023-09-01T03:06:04.005Z,15.90
2023-09-01T03:08:30.578Z,15.88
2023-09-01T03:10:57.146Z,15.88
2023-09-01T03:13:23.802Z,15.89
2023-09-01T03:15:50.557Z,15.88
2023-09-01T03:18:19.477Z,15.88
2023-09-01T03:20:46.525Z,15.87
2023-09-01T03:23:13.240Z,15.88
2023-09-01T03:25:39.876Z,15.87
2023-09-01T03:28:07.206Z,15.89
2023-09-01T03:30:33.819Z,15.91
2023-09-01T03:33:00.451Z,15.94
2023-09-01T03:35:27.090Z,15.95
2023-09-01T03:37:54.156Z,15.95
2023-09-01T03:40:21.307Z,15.96
2023-09-01T03:42:47.943Z,15.97
2023-09-01T03:45:14.606Z,15.99
2023-09-01T03:47:41.260Z,15.99
2023-09-01T03:50:08.002Z,16.00
2023-09-01T03:52:34.597Z,16.01
2023-09-01T03:55:01.442Z,16.03
2023-09-01T03:57:28.057Z,16.06
2023-09-01T03:59:54.639Z,16.11
2023-09-01T04:02:21.312Z,16.16
2023-09-01T04:04:48.868Z,16.20
2023-09-01T04:07:15.450Z,16.26
2023-09-01T04:09:42.087Z,16.32
2023-09-01T04:12:08.816Z,16.37
2023-09-01T04:14:35.373Z,16.41
2023-09-01T04:17:01.941Z,16.46
2023-09-01T04:19:28.514Z,16.51
2023-09-01T04:21:55.075Z,16.53
2023-09-01T04:24:21.666Z,16.59
2023-09-01T04:26:48.326Z,16.66
2023-09-01T04:29:15.822Z,16.71
2023-09-01T04:31:42.518Z,16.74
2023-09-01T04:34:09.457Z,16.79
2023-09-01T04:36:46.576Z,16.82
2023-09-01T04:39:16.451Z,16.86
2023-09-01T04:41:43.431Z,16.91
2023-09-01T04:44:10.152Z,16.95
2023-09-01T04:46:36.762Z,16.98
2023-09-01T04:49:03.472Z,17.04
2023-09-01T04:51:30.075Z,17.07
2023-09-01T04:53:56.665Z,17.10
2023-09-01T04:56:23.267Z,17.12
2023-09-01T04:58:49.935Z,17.15
2023-09-01T05:01:16.548Z,17.18
2023-09-01T05:03:43.181Z,17.20
2023-09-01T05:06:11.975Z,17.23
2023-09-01T05:08:38.672Z,17.25
2023-09-01T05:11:05.260Z,17.28
2023-09-01T05:13:31.901Z,17.35
2023-09-01T05:15:58.896Z,17.42
2023-09-01T05:18:25.546Z,17.49
2023-09-01T05:20:52.175Z,17.55
2023-09-01T05:23:18.885Z,17.62
2023-09-01T05:25:51.377Z,17.69
2023-09-01T05:28:17.943Z,17.75
2023-09-01T05:30:44.602Z,17.82
2023-09-01T05:33:13.804Z,17.88
2023-09-01T05:35:42.000Z,17.95
2023-09-01T05:38:10.343Z,18.01
2023-09-01T05:40:37.327Z,18.07
2023-09-01T05:43:04.045Z,18.15
2023-09-01T05:45:30.597Z,18.23
2023-09-01T05:47:57.924Z,18.31
2023-09-01T05:50:24.772Z,18.38
2023-09-01T05:52:51.402Z,18.46
2023-09-01T05:55:18.201Z,18.54
2023-09-01T05:57:45.490Z,18.63
2023-09-01T06:00:12.382Z,18.72
2023-09-01T06:02:38.983Z,18.80
2023-09-01T06:05:06.471Z,18.86
2023-09-01T06:07:33.097Z,18.95
2023-09-01T06:09:59.974Z,19.03
2023-09-01T06:12:26.559Z,19.11
2023-09-01T06:14:53.256Z,19.20
2023-09-01T06:17:26.757Z,19.29
2023-09-01T06:19:59.535Z,19.39
2023-09-01T06:22:26.124Z,19.47
2023-09-01T06:24:52.789Z,19.56
2023-09-01T06:27:19.397Z,19.67
2023-09-01T06:29:46.178Z,19.77
2023-09-01T06:32:13.085Z,19.86
2023-09-01T06:34:39.979Z,19.94
2023-09-01T06:37:06.639Z,20.03
2023-09-01T06:39:33.410Z,20.13
2023-09-01T06:42:00.308Z,20.22
2023-09-01T06:44:26.991Z,20.29
2023-09-01T06:46:53.603Z,20.37
2023-09-01T06:49:20.262Z,20.47
2023-09-01T06:51:46.816Z,20.56
2023-09-01T06:54:13.381Z,20.64
2023-09-01T06:56:40.010Z,20.71
2023-09-01T06:59:06.591Z,20.79
2023-09-01T07:01:33.223Z,20.88
2023-09-01T07:03:59.904Z,20.96
2023-09-01T07:06:26.541Z,21.05
2023-09-01T07:08:53.098Z,21.15
2023-09-01T07:11:20.914Z,21.26
2023-09-01T07:13:50.693Z,21.40
2023-09-01T07:16:17.345Z,21.50
2023-09-01T07:18:43.972Z,21.57
2023-09-01T07:21:10.654Z,21.66
2023-09-01T07:23:37.228Z,21.77
2023-09-01T07:26:04.990Z,21.91
2023-09-01T07:28:31.540Z,21.99
2023-09-01T07:30:58.182Z,22.06
2023-09-01T07:33:24.912Z,22.11
2023-09-01T07:35:52.129Z,22.16
2023-09-01T07:38:19.957Z,22.20
2023-09-01T07:40:46.964Z,22.25
2023-09-01T07:43:13.551Z,22.32
2023-09-01T07:45:41.080Z,22.39
2023-09-01T07:48:20.562Z,22.51
2023-09-01T07:50:49.800Z,22.58
2023-09-01T07:53:16.532Z,22.69
2023-09-01T07:55:43.218Z,22.76
2023-09-01T07:58:09.817Z,22.82
2023-09-01T08:00:41.281Z,22.90
2023-09-01T08:03:12.130Z,22.97
2023-09-01T08:05:40.158Z,23.05
2023-09-01T08:08:07.464Z,23.11
2023-09-01T08:10:34.181Z,23.17
2023-09-01T08:13:01.032Z,23.27
2023-09-01T08:15:27.660Z,23.34
2023-09-01T08:17:54.503Z,23.46
2023-09-01T08:20:21.170Z,23.50
2023-09-01T08:22:47.848Z,23.54
2023-09-01T08:25:14.799Z,23.57
2023-09-01T08:27:41.512Z,23.61
2023-09-01T08:30:08.387Z,23.69
2023-09-01T08:32:35.160Z,23.76
2023-09-01T08:35:03.422Z,23.79
2023-09-01T08:37:30.052Z,23.84
2023-09-01T08:39:56.736Z,23.88
2023-09-01T08:42:23.704Z,23.96
2023-09-01T08:44:50.438Z,24.04
2023-09-01T08:47:22.030Z,24.08
2023-09-01T08:49:52.031Z,24.10
2023-09-01T08:52:21.718Z,24.17
2023-09-01T08:54:49.223Z,24.24
2023-09-01T08:57:16.031Z,24.31
2023-09-01T08:59:43.560Z,24.38
2023-09-01T09:02:10.892Z,24.45
2023-09-01T09:04:37.901Z,24.44
2023-09-01T09:07:15.345Z,24.51
2023-09-01T09:09:56.498Z,24.63
2023-09-01T09:12:24.146Z,24.63
2023-09-01T09:14:58.425Z,24.66
2023-09-01T09:17:39.117Z,24.73
2023-09-01T09:20:07.777Z,24.84
2023-09-01T09:22:50.201Z,24.93
2023-09-01T09:25:43.227Z,24.96
2023-09-01T09:28:18.242Z,25.07
2023-09-01T09:30:52.000Z,25.10
2023-09-01T09:33:26.753Z,25.10
2023-09-01T09:35:53.332Z,25.18
2023-09-01T09:38:20.007Z,25.27
2023-09-01T09:40:59.449Z,25.30
2023-09-01T09:43:26.120Z,25.32
2023-09-01T09:45:54.193Z,25.37
2023-09-01T09:48:21.393Z,25.43
2023-09-01T09:50:51.570Z,25.46
2023-09-01T09:53:21.550Z,25.54
2023-09-01T09:55:49.751Z,25.55
2023-09-01T09:58:18.428Z,25.60
2023-09-01T10:00:47.962Z,25.65
2023-09-01T10:03:16.052Z,25.64
2023-09-01T10:05:44.321Z,25.67
2023-09-01T10:08:11.178Z,25.74
2023-09-01T10:10:38.433Z,25.88
2023-09-01T10:13:08.620Z,26.03
2023-09-01T10:15:36.105Z,26.05
2023-09-01T10:18:03.992Z,25.99
2023-09-01T10:20:31.738Z,26.22
2023-09-01T10:22:58.459Z,26.76
2023-09-01T10:25:25.774Z,27.70
2023-09-01T10:28:04.724Z,28.55
2023-09-01T10:30:35.529Z,29.35
2023-09-01T10:33:08.541Z,29.83
2023-09-01T10:35:47.177Z,30.09
2023-09-01T10:38:20.415Z,30.20
2023-09-01T10:40:47.156Z,30.56
2023-09-01T10:43:13.930Z,30.71
2023-09-01T10:45:41.038Z,30.56
2023-09-01T10:48:13.054Z,30.70
2023-09-01T10:50:43.264Z,30.82
2023-09-01T10:53:29.375Z,31.02
2023-09-01T10:56:05.594Z,31.34
2023-09-01T10:58:41.263Z,31.44
2023-09-01T11:01:43.266Z,31.59
2023-09-01T11:04:15.885Z,31.65
2023-09-01T11:06:57.555Z,31.76
2023-09-01T11:09:24.425Z,31.96
2023-09-01T11:11:51.076Z,32.00
2023-09-01T11:14:21.340Z,32.53
2023-09-01T11:16:48.004Z,32.84
2023-09-01T11:19:14.616Z,32.92
2023-09-01T11:21:44.430Z,32.97
2023-09-01T11:24:11.063Z,32.85
2023-09-01T11:26:42.060Z,32.91
2023-09-01T11:29:10.179Z,33.05
2023-09-01T11:31:40.185Z,33.00
2023-09-01T11:34:07.018Z,33.15
2023-09-01T11:36:34.148Z,33.63
2023-09-01T11:39:01.014Z,33.86
2023-09-01T11:41:28.450Z,33.53
2023-09-01T11:43:58.014Z,33.32
2023-09-01T11:46:32.947Z,33.59
2023-09-01T11:49:00.073Z,33.91
2023-09-01T11:51:32.672Z,33.47
2023-09-01T11:53:59.877Z,33.59
2023-09-01T11:56:26.816Z,33.91
2023-09-01T11:58:54.986Z,33.83
2023-09-01T12:01:22.821Z,33.66
2023-09-01T12:03:50.441Z,33.89
2023-09-01T12:06:23.472Z,33.74
2023-09-01T12:08:50.895Z,33.91
2023-09-01T12:11:19.790Z,33.80
2023-09-01T12:13:48.024Z,33.58
2023-09-01T12:16:24.817Z,33.70
2023-09-01T12:18:54.507Z,33.79
2023-09-01T12:21:21.104Z,33.65
2023-09-01T12:23:48.693Z,33.58
2023-09-01T12:26:16.446Z,33.67
2023-09-01T12:28:43.994Z,33.94
2023-09-01T12:31:11.148Z,33.86
2023-09-01T12:33:38.081Z,33.80
2023-09-01T12:36:05.788Z,33.41
2023-09-01T12:38:32.516Z,33.58
2023-09-01T12:40:59.186Z,33.79
2023-09-01T12:43:25.811Z,33.88
2023-09-01T12:45:52.451Z,34.15
2023-09-01T12:48:19.234Z,34.34
2023-09-01T12:50:49.374Z,34.53
2023-09-01T12:53:16.550Z,34.47
2023-09-01T12:55:43.795Z,34.17
2023-09-01T12:58:10.531Z,34.12
2023-09-01T13:00:37.890Z,34.50
2023-09-01T13:03:04.928Z,34.92
2023-09-01T13:05:32.471Z,34.99
2023-09-01T13:08:00.941Z,34.65
2023-09-01T13:10:28.176Z,34.22
2023-09-01T13:12:54.902Z,33.79
2023-09-01T13:15:21.773Z,33.37
2023-09-01T13:17:48.656Z,33.17
2023-09-01T13:20:15.872Z,33.14
2023-09-01T13:22:43.145Z,32.82
2023-09-01T13:25:09.990Z,32.54
2023-09-01T13:27:36.742Z,32.25
2023-09-01T13:30:03.760Z,32.06
2023-09-01T13:32:30.932Z,32.02
2023-09-01T13:34:57.553Z,32.05
2023-09-01T13:37:26.111Z,32.20
2023-09-01T13:40:01.110Z,32.67
2023-09-01T13:42:28.217Z,33.17
2023-09-01T13:44:58.506Z,33.23
2023-09-01T13:47:26.176Z,33.48
2023-09-01T13:49:55.493Z,33.81
2023-09-01T13:52:23.040Z,34.18
2023-09-01T13:54:54.058Z,34.30
2023-09-01T13:57:21.438Z,34.27
2023-09-01T13:59:48.136Z,34.34
2023-09-01T14:02:15.540Z,34.30
2023-09-01T14:04:42.342Z,34.18
2023-09-01T14:07:09.462Z,34.24
2023-09-01T14:09:36.635Z,33.99
2023-09-01T14:12:08.591Z,33.56
2023-09-01T14:14:35.311Z,33.52
2023-09-01T14:17:02.026Z,33.45
2023-09-01T14:19:29.672Z,33.20
2023-09-01T14:21:56.402Z,32.66
2023-09-01T14:24:23.868Z,32.41
2023-09-01T14:26:52.988Z,32.60
2023-09-01T14:29:19.788Z,32.88
2023-09-01T14:31:46.603Z,33.09
2023-09-01T14:34:14.254Z,33.29
2023-09-01T14:36:41.022Z,33.40
2023-09-01T14:39:08.110Z,33.51
2023-09-01T14:41:35.414Z,33.23
2023-09-01T14:44:02.498Z,32.79
2023-09-01T14:46:33.723Z,32.38
2023-09-01T14:49:02.090Z,32.28
2023-09-01T14:51:29.767Z,32.36
2023-09-01T14:53:56.618Z,32.37
2023-09-01T14:56:24.803Z,32.42
2023-09-01T14:58:54.510Z,32.33
2023-09-01T15:01:23.992Z,31.85
2023-09-01T15:03:50.962Z,30.85
2023-09-01T15:06:17.785Z,29.79
2023-09-01T15:08:44.446Z,28.88
2023-09-01T15:11:11.096Z,28.23
2023-09-01T15:13:37.780Z,27.79
2023-09-01T15:16:04.668Z,27.42
2023-09-01T15:18:31.457Z,27.13
2023-09-01T15:21:04.081Z,26.92
2023-09-01T15:23:30.814Z,26.72
2023-09-01T15:25:57.430Z,26.57
2023-09-01T15:28:24.081Z,26.36
2023-09-01T15:30:50.764Z,26.26
2023-09-01T15:33:17.718Z,26.17
2023-09-01T15:35:44.751Z,26.07
2023-09-01T15:38:11.375Z,25.97
2023-09-01T15:40:38.040Z,25.87
2023-09-01T15:43:04.762Z,25.80
2023-09-01T15:45:31.353Z,25.70
2023-09-01T15:47:58.056Z,25.57
2023-09-01T15:50:31.559Z,25.44
2023-09-01T15:53:10.490Z,25.33
2023-09-01T15:55:39.131Z,25.24
2023-09-01T15:58:06.328Z,25.13
2023-09-01T16:00:34.847Z,25.02
2023-09-01T16:03:01.493Z,24.94
2023-09-01T16:05:29.669Z,24.88
2023-09-01T16:07:56.583Z,24.79
2023-09-01T16:10:23.144Z,24.73
2023-09-01T16:12:49.798Z,24.65
2023-09-01T16:15:16.551Z,24.56
2023-09-01T16:17:43.149Z,24.50
2023-09-01T16:20:10.094Z,24.44
2023-09-01T16:22:36.767Z,24.39
2023-09-01T16:25:04.231Z,24.33
2023-09-01T16:27:34.334Z,24.27
2023-09-01T16:30:01.702Z,24.16
2023-09-01T16:32:28.434Z,24.11
2023-09-01T16:34:55.081Z,24.05
2023-09-01T16:37:21.694Z,23.99
2023-09-01T16:39:49.998Z,23.93
2023-09-01T16:42:18.664Z,23.84
2023-09-01T16:44:45.999Z,23.79
2023-09-01T16:47:12.914Z,23.73
2023-09-01T16:49:40.656Z,23.68
2023-09-01T16:52:07.398Z,23.62
2023-09-01T16:54:34.023Z,23.56
2023-09-01T16:57:01.246Z,23.51
2023-09-01T16:59:30.561Z,23.45
2023-09-01T17:01:57.162Z,23.40
2023-09-01T17:04:26.261Z,23.36
2023-09-01T17:06:52.928Z,23.31
2023-09-01T17:09:21.643Z,23.26
2023-09-01T17:11:52.338Z,23.22
2023-09-01T17:14:19.744Z,23.16
2023-09-01T17:16:46.365Z,23.13
2023-09-01T17:19:13.029Z,23.08
2023-09-01T17:21:39.629Z,23.00
2023-09-01T17:24:06.556Z,22.94
2023-09-01T17:26:33.241Z,22.88
2023-09-01T17:29:01.153Z,22.83
2023-09-01T17:31:28.075Z,22.79
2023-09-01T17:33:54.754Z,22.77
2023-09-01T17:36:21.351Z,22.74
2023-09-01T17:38:48.107Z,22.74
2023-09-01T17:41:14.841Z,22.72
2023-09-01T17:43:41.484Z,22.69
2023-09-01T17:46:08.135Z,22.65
2023-09-01T17:48:34.863Z,22.62
2023-09-01T17:51:01.496Z,22.56
2023-09-01T17:53:28.893Z,22.52
2023-09-01T17:55:55.605Z,22.48
2023-09-01T17:58:22.332Z,22.43
2023-09-01T18:00:50.842Z,22.37
2023-09-01T18:03:18.057Z,22.29
2023-09-01T18:05:45.157Z,22.18
2023-09-01T18:08:11.804Z,22.12
2023-09-01T18:10:38.993Z,22.08
2023-09-01T18:13:05.798Z,22.08
2023-09-01T18:15:32.596Z,22.07
2023-09-01T18:17:59.858Z,22.03
2023-09-01T18:20:29.563Z,22.02
2023-09-01T18:22:59.415Z,22.01
2023-09-01T18:25:26.877Z,21.99
2023-09-01T18:27:53.455Z,21.97
2023-09-01T18:30:21.076Z,21.93
2023-09-01T18:32:49.015Z,21.89
2023-09-01T18:35:15.953Z,21.86
2023-09-01T18:37:45.322Z,21.85
2023-09-01T18:40:24.960Z,21.82
2023-09-01T18:42:53.123Z,21.81
2023-09-01T18:45:25.604Z,21.78
2023-09-01T18:47:52.516Z,21.77
2023-09-01T18:50:23.866Z,21.74
2023-09-01T18:52:53.920Z,21.73
2023-09-01T18:55:20.530Z,21.72
2023-09-01T18:57:47.851Z,21.70
2023-09-01T19:00:15.572Z,21.69
2023-09-01T19:02:49.552Z,21.66
2023-09-01T19:05:19.039Z,21.64
2023-09-01T19:07:46.070Z,21.61
2023-09-01T19:10:25.064Z,21.59
2023-09-01T19:12:52.786Z,21.56
2023-09-01T19:15:20.825Z,21.52
2023-09-01T19:17:48.842Z,21.48
2023-09-01T19:20:25.910Z,21.46
2023-09-01T19:22:52.779Z,21.42
2023-09-01T19:25:19.400Z,21.41
2023-09-01T19:28:00.818Z,21.39
2023-09-01T19:30:34.798Z,21.37
2023-09-01T19:33:01.870Z,21.34
2023-09-01T19:35:28.700Z,21.30
2023-09-01T19:37:55.733Z,21.28
2023-09-01T19:40:22.916Z,21.24
2023-09-01T19:42:49.724Z,21.22
2023-09-01T19:45:27.488Z,21.21
2023-09-01T19:47:55.156Z,21.19
2023-09-01T19:50:27.137Z,21.17
2023-09-01T19:52:57.428Z,21.14
2023-09-01T19:55:27.508Z,21.11
2023-09-01T19:57:55.205Z,21.09
2023-09-01T20:00:23.737Z,21.06
2023-09-01T20:02:56.984Z,21.03
2023-09-01T20:05:27.041Z,20.99
2023-09-01T20:07:54.083Z,20.95
2023-09-01T20:10:22.531Z,20.93
2023-09-01T20:12:49.289Z,20.86
2023-09-01T20:15:17.257Z,20.80
2023-09-01T20:17:43.914Z,20.73
2023-09-01T20:20:10.936Z,20.66
2023-09-01T20:22:37.571Z,20.58
2023-09-01T20:25:04.441Z,20.55
2023-09-01T20:27:31.138Z,20.50
2023-09-01T20:29:57.836Z,20.47
2023-09-01T20:32:24.449Z,20.44
2023-09-01T20:34:53.563Z,20.39
2023-09-01T20:37:20.873Z,20.35
2023-09-01T20:39:48.175Z,20.31
2023-09-01T20:42:15.402Z,20.27
2023-09-01T20:44:44.306Z,20.23
2023-09-01T20:47:14.058Z,20.21
2023-09-01T20:49:44.145Z,20.17
2023-09-01T20:52:14.576Z,20.13
2023-09-01T20:54:44.026Z,20.09
2023-09-01T20:57:15.745Z,20.08
2023-09-01T20:59:42.780Z,20.04
2023-09-01T21:02:09.492Z,20.02
2023-09-01T21:04:37.933Z,20.02
2023-09-01T21:07:05.148Z,20.00
2023-09-01T21:09:35.319Z,19.98
2023-09-01T21:12:03.291Z,20.01
2023-09-01T21:14:33.333Z,20.05
2023-09-01T21:17:02.563Z,20.03
2023-09-01T21:19:30.020Z,20.00
2023-09-01T21:21:57.458Z,20.00
2023-09-01T21:24:24.446Z,19.97
2023-09-01T21:26:53.386Z,19.93
2023-09-01T21:29:22.597Z,19.90
2023-09-01T21:31:49.715Z,19.87
2023-09-01T21:34:16.678Z,19.86
2023-09-01T21:36:43.357Z,19.83
2023-09-01T21:39:10.043Z,19.80
2023-09-01T21:41:36.880Z,19.76
2023-09-01T21:44:05.722Z,19.70
2023-09-01T21:46:33.446Z,19.63
2023-09-01T21:49:00.379Z,19.59
2023-09-01T21:51:27.183Z,19.57
2023-09-01T21:53:53.833Z,19.56
2023-09-01T21:56:20.535Z,19.55
2023-09-01T21:58:47.823Z,19.53
2023-09-01T22:01:15.518Z,19.50
2023-09-01T22:03:43.804Z,19.48
2023-09-01T22:06:10.850Z,19.47
2023-09-01T22:08:37.560Z,19.44
2023-09-01T22:11:06.645Z,19.46
2023-09-01T22:13:41.085Z,19.47
2023-09-01T22:16:10.141Z,19.45
2023-09-01T22:18:38.035Z,19.44
2023-09-01T22:21:08.206Z,19.47
2023-09-01T22:23:35.158Z,19.48
2023-09-01T22:26:02.449Z,19.45
2023-09-01T22:28:29.440Z,19.44
2023-09-01T22:30:56.459Z,19.45
2023-09-01T22:33:23.158Z,19.45
2023-09-01T22:35:49.828Z,19.42
2023-09-01T22:38:17.573Z,19.40
2023-09-01T22:40:46.018Z,19.37
2023-09-01T22:43:19.727Z,19.32
2023-09-01T22:45:46.996Z,19.26
2023-09-01T22:48:13.618Z,19.21
2023-09-01T22:50:40.267Z,19.17
2023-09-01T22:53:06.922Z,19.14
2023-09-01T22:55:33.828Z,19.10
2023-09-01T22:58:00.649Z,19.06
2023-09-01T23:00:27.477Z,19.03
2023-09-01T23:02:54.227Z,19.01
2023-09-01T23:05:20.911Z,18.98
2023-09-01T23:07:47.500Z,18.97
2023-09-01T23:10:14.114Z,18.95
2023-09-01T23:12:40.742Z,18.93
2023-09-01T23:15:07.616Z,18.90
2023-09-01T23:17:34.213Z,18.87
2023-09-01T23:20:00.839Z,18.85
2023-09-01T23:22:27.797Z,18.82
2023-09-01T23:24:54.551Z,18.80
2023-09-01T23:27:21.220Z,18.77
2023-09-01T23:29:47.789Z,18.73
2023-09-01T23:32:14.406Z,18.67
2023-09-01T23:34:41.084Z,18.62
2023-09-01T23:37:07.688Z,18.56
2023-09-01T23:39:34.535Z,18.51
2023-09-01T23:42:01.403Z,18.46
2023-09-01T23:44:28.143Z,18.43
2023-09-01T23:46:54.752Z,18.41
2023-09-01T23:49:21.419Z,18.39
2023-09-01T23:51:48.040Z,18.36
2023-09-01T23:54:14.780Z,18.32
2023-09-01T23:56:41.492Z,18.26
2023-09-01T23:59:08.091Z,18.19
